Time;durP1;ratioP1;P1;durP2;ratioP2;P2;SDS_P1;SDS_P2;PMS_P1;PMS_P2;Temp;Humidity;BMP_temperature;BMP_pressure;BME280_temperature;BME280_humidity;BME280_pressure;Samples;Min_cycle;Max_cycle;Signal;HPM_P1;HPM_P2
2022/08/18 00:01:48;;;;;;;13.17;11.93;;;24.90;61.80;;;;;;5068532;28;20462;-48
2022/08/18 00:04:16;;;;;;;12.90;11.70;;;24.90;61.90;;;;;;5083059;28;20531;-47
2022/08/18 00:07:03;;;;;;;12.67;10.80;;;24.80;61.90;;;;;;5086650;28;21114;-47
2022/08/18 00:09:30;;;;;;;12.60;11.43;;;24.80;62.00;;;;;;5066057;28;20761;-47
2022/08/18 00:12:00;;;;;;;12.80;11.50;;;24.80;62.10;;;;;;5057302;28;20542;-47
2022/08/18 00:14:27;;;;;;;12.67;11.60;;;24.80;62.10;;;;;;5084367;28;20448;-47
2022/08/18 00:16:54;;;;;;;13.17;12.00;;;24.70;62.20;;;;;;5084208;28;20472;-47
2022/08/18 00:19:23;;;;;;;14.40;13.10;;;24.70;62.30;;;;;;5083149;28;20483;-47
2022/08/18 00:22:13;;;;;;;12.77;11.60;;;24.70;62.30;;;;;;5083688;28;20542;-47
2022/08/18 00:24:42;;;;;;;13.40;12.00;;;24.70;62.50;;;;;;5080638;28;20456;-47
2022/08/18 00:27:20;;;;;;;12.60;11.50;;;24.60;62.60;;;;;;5085260;28;20495;-47
2022/08/18 00:29:49;;;;;;;12.70;11.53;;;24.60;62.80;;;;;;5086381;28;20832;-47
2022/08/18 00:32:19;;;;;;;13.30;11.90;;;24.50;62.90;;;;;;5085704;28;20452;-47
2022/08/18 00:34:45;;;;;;;12.80;11.60;;;24.50;62.90;;;;;;5084035;28;20961;-47
2022/08/18 00:37:12;;;;;;;12.77;11.67;;;24.40;63.00;;;;;;5084375;28;20448;-47
2022/08/18 00:39:39;;;;;;;11.10;10.20;;;24.40;63.00;;;;;;5086909;28;20493;-47
2022/08/18 00:42:25;;;;;;;11.73;10.60;;;24.30;63.10;;;;;;5068324;28;20468;-47
2022/08/18 00:45:01;;;;;;;11.73;10.63;;;24.30;63.00;;;;;;5080276;28;20555;-47
2022/08/18 00:47:29;;;;;;;11.60;10.60;;;24.30;62.80;;;;;;5066889;28;20911;-47
2022/08/18 00:50:13;;;;;;;11.77;10.63;;;24.30;62.60;;;;;;5083932;28;20969;-47
2022/08/18 00:52:46;;;;;;;11.63;10.63;;;24.30;62.60;;;;;;5084673;28;20486;-47
2022/08/18 00:55:16;;;;;;;12.40;10.37;;;24.30;62.60;;;;;;5062366;28;20452;-47
2022/08/18 00:57:45;;;;;;;11.90;10.90;;;24.30;62.40;;;;;;5084154;28;20486;-47
2022/08/18 01:00:13;;;;;;;12.70;11.70;;;24.30;62.50;;;;;;5079221;28;20456;-47
2022/08/18 01:02:51;;;;;;;12.83;11.57;;;24.30;62.80;;;;;;5084361;28;20463;-47
2022/08/18 01:05:22;;;;;;;12.23;10.70;;;24.30;62.80;;;;;;5082850;28;20459;-47
2022/08/18 01:07:49;;;;;;;12.33;11.20;;;24.30;62.80;;;;;;5083139;28;20868;-47
2022/08/18 01:10:19;;;;;;;11.70;10.50;;;24.30;62.90;;;;;;5083399;28;20539;-47
2022/08/18 01:12:51;;;;;;;12.97;11.87;;;24.30;63.00;;;;;;5065532;28;20464;-47
2022/08/18 01:15:20;;;;;;;12.97;11.50;;;24.20;63.20;;;;;;5080652;28;20462;-47
2022/08/18 01:23:40;;;;;;;11.33;10.33;;;24.10;63.80;;;;;;5082442;28;21003;-47
2022/08/18 01:26:08;;;;;;;13.60;12.33;;;23.90;64.20;;;;;;5081750;28;20469;-47
2022/08/18 01:28:40;;;;;;;12.60;11.27;;;23.90;64.50;;;;;;5081900;28;20522;-47
2022/08/18 01:31:08;;;;;;;12.10;10.90;;;23.90;64.30;;;;;;5062346;28;20448;-47
2022/08/18 01:33:39;;;;;;;12.97;10.57;;;23.90;64.00;;;;;;5065070;28;20483;-47
2022/08/18 01:36:18;;;;;;;12.30;11.10;;;23.90;63.80;;;;;;5061781;28;20460;-47
2022/08/18 01:38:49;;;;;;;11.20;10.20;;;24.00;63.70;;;;;;5089846;28;20463;-47
2022/08/18 01:41:17;;;;;;;12.17;11.07;;;23.90;63.90;;;;;;5070924;28;20464;-47
2022/08/18 01:43:55;;;;;;;12.77;11.63;;;23.90;64.20;;;;;;5087404;28;20487;-47
2022/08/18 01:46:22;;;;;;;12.30;11.03;;;23.90;63.90;;;;;;5085593;28;20460;-47
2022/08/18 01:48:49;;;;;;;13.57;11.57;;;23.90;63.70;;;;;;5069270;28;20578;-46
2022/08/18 01:51:19;;;;;;;12.20;11.10;;;23.90;63.70;;;;;;5086397;28;20466;-47
2022/08/18 01:54:06;;;;;;;11.60;10.40;;;23.90;63.70;;;;;;5088589;28;20459;-47
2022/08/18 01:56:33;;;;;;;11.97;10.87;;;24.00;63.70;;;;;;5087696;28;20542;-47
2022/08/18 01:58:59;;;;;;;12.07;11.00;;;23.90;63.70;;;;;;5086377;28;20452;-47
2022/08/18 02:01:26;;;;;;;11.30;10.03;;;23.90;63.80;;;;;;5086521;28;20452;-47
2022/08/18 02:04:03;;;;;;;11.87;10.83;;;23.90;64.00;;;;;;5087525;28;20471;-49
2022/08/18 02:06:49;;;;;;;12.67;11.60;;;23.80;64.30;;;;;;5072785;28;20455;-49
2022/08/18 02:09:16;;;;;;;11.17;10.17;;;23.80;64.40;;;;;;5088175;28;20871;-49
2022/08/18 02:11:51;;;;;;;11.37;10.37;;;23.80;64.30;;;;;;5082309;28;20470;-49
2022/08/18 02:14:22;;;;;;;10.37;9.47;;;23.80;64.10;;;;;;5086918;28;20463;-49
2022/08/18 02:16:55;;;;;;;11.83;10.63;;;23.80;64.00;;;;;;5068691;28;20468;-49
2022/08/18 02:19:35;;;;;;;10.60;9.70;;;23.80;63.90;;;;;;5086617;28;20460;-49
2022/08/18 02:22:03;;;;;;;11.17;10.27;;;23.90;64.10;;;;;;5067979;28;20470;-49
2022/08/18 02:24:30;;;;;;;12.33;11.20;;;23.80;64.30;;;;;;5052471;28;20959;-49
2022/08/18 02:26:57;;;;;;;12.10;10.90;;;23.80;64.40;;;;;;5059845;28;20984;-49
2022/08/18 02:29:24;;;;;;;11.10;10.17;;;23.80;64.60;;;;;;5087407;28;20460;-49
2022/08/18 02:31:51;;;;;;;11.87;10.77;;;23.80;64.70;;;;;;5084576;28;21097;-49
2022/08/18 02:34:18;;;;;;;12.13;10.93;;;23.70;64.70;;;;;;5089051;28;20459;-49
2022/08/18 02:36:45;;;;;;;11.93;10.83;;;23.70;64.80;;;;;;5085320;28;20459;-49
2022/08/18 02:39:12;;;;;;;12.53;11.43;;;23.70;64.90;;;;;;5090095;28;20474;-49
2022/08/18 02:41:38;;;;;;;13.67;12.43;;;23.70;65.10;;;;;;5069655;28;20459;-49
2022/08/18 02:44:07;;;;;;;13.30;12.10;;;23.70;65.00;;;;;;5087889;28;20463;-49
2022/08/18 02:46:34;;;;;;;13.00;11.90;;;23.70;64.90;;;;;;5084378;28;20470;-49
2022/08/18 02:49:03;;;;;;;12.40;11.30;;;23.70;64.80;;;;;;5090694;28;20496;-49
2022/08/18 02:51:30;;;;;;;12.80;11.70;;;23.70;64.80;;;;;;5085599;28;20981;-49
2022/08/18 02:53:58;;;;;;;13.83;12.43;;;23.70;64.90;;;;;;5090132;28;20460;-49
2022/08/18 02:56:28;;;;;;;12.90;11.70;;;23.70;64.90;;;;;;5087958;28;21047;-49
2022/08/18 02:59:10;;;;;;;13.93;12.60;;;23.70;65.00;;;;;;5085555;28;20471;-49
2022/08/18 03:01:40;;;;;;;13.00;11.70;;;23.80;64.70;;;;;;5084525;28;20468;-49
2022/08/18 03:04:11;;;;;;;12.83;11.43;;;23.80;64.40;;;;;;5086336;28;20482;-49
2022/08/18 03:06:38;;;;;;;13.17;11.90;;;23.80;64.00;;;;;;5084968;28;20476;-49
2022/08/18 03:09:07;;;;;;;12.23;11.13;;;23.80;63.80;;;;;;5085750;28;20849;-49
2022/08/18 03:11:35;;;;;;;13.20;11.83;;;23.80;63.30;;;;;;5087219;28;20448;-49
2022/08/18 03:14:04;;;;;;;13.17;11.97;;;23.60;63.70;;;;;;5064177;28;20788;-49
2022/08/18 03:16:31;;;;;;;11.70;10.40;;;23.60;63.80;;;;;;5083130;28;20448;-49
2022/08/18 03:19:00;;;;;;;11.67;10.57;;;23.70;63.70;;;;;;5079103;28;20568;-49
2022/08/18 03:21:29;;;;;;;12.67;10.97;;;23.70;64.00;;;;;;5081523;28;20464;-49
2022/08/18 03:23:57;;;;;;;10.93;9.93;;;23.70;63.80;;;;;;5088785;28;20550;-49
2022/08/18 03:26:29;;;;;;;14.03;11.43;;;23.80;63.70;;;;;;5068912;28;20464;-49
2022/08/18 03:28:57;;;;;;;12.07;10.97;;;23.80;64.10;;;;;;5065039;28;20487;-49
2022/08/18 03:31:25;;;;;;;12.50;11.33;;;23.70;64.30;;;;;;5084807;28;20456;-49
2022/08/18 03:33:55;;;;;;;11.40;10.40;;;23.70;64.60;;;;;;5049675;28;20494;-49
2022/08/18 03:36:27;;;;;;;12.50;11.37;;;23.70;64.60;;;;;;5068395;28;20440;-49
2022/08/18 03:38:55;;;;;;;13.50;11.13;;;23.70;64.60;;;;;;5084447;28;20467;-49
2022/08/18 03:41:23;;;;;;;14.03;12.73;;;23.50;65.10;;;;;;5067681;28;20993;-49
2022/08/18 03:44:13;;;;;;;12.57;11.43;;;23.50;65.40;;;;;;5085235;28;20456;-49
2022/08/18 03:46:42;;;;;;;11.60;10.50;;;23.50;65.40;;;;;;5062827;28;20822;-49
2022/08/18 03:49:09;;;;;;;11.83;10.77;;;23.50;65.50;;;;;;5068082;28;20491;-49
2022/08/18 03:51:36;;;;;;;14.77;11.40;;;23.50;65.60;;;;;;5084916;28;21109;-49
2022/08/18 03:54:05;;;;;;;12.03;10.80;;;23.50;65.60;;;;;;5082779;28;20460;-49
2022/08/18 03:56:37;;;;;;;12.90;11.60;;;23.50;65.80;;;;;;5084796;28;20456;-49
2022/08/18 03:59:07;;;;;;;13.17;11.60;;;23.50;65.90;;;;;;5085334;28;20455;-49
2022/08/18 04:01:39;;;;;;;14.03;12.53;;;23.50;66.10;;;;;;5082309;28;20457;-49
2022/08/18 04:04:10;;;;;;;13.33;12.03;;;23.50;66.40;;;;;;5070073;28;20464;-49
2022/08/18 04:06:41;;;;;;;13.00;11.70;;;23.50;66.20;;;;;;5068120;28;20459;-49
2022/08/18 04:09:14;;;;;;;14.00;12.67;;;23.50;66.40;;;;;;5083589;28;20503;-49
2022/08/18 04:11:42;;;;;;;13.23;11.97;;;23.50;66.40;;;;;;5081982;28;20452;-49
2022/08/18 04:14:15;;;;;;;13.50;11.53;;;23.40;66.50;;;;;;5066045;28;20876;-49
2022/08/18 04:16:43;;;;;;;13.67;12.37;;;23.40;66.70;;;;;;5063727;28;20487;-49
2022/08/18 04:19:12;;;;;;;14.77;12.87;;;23.30;66.90;;;;;;5084991;28;20463;-49
2022/08/18 04:21:41;;;;;;;14.57;12.63;;;23.30;67.00;;;;;;5085339;28;20456;-49
2022/08/18 04:24:10;;;;;;;15.47;13.90;;;23.30;67.10;;;;;;5084124;28;20461;-49
2022/08/18 04:26:46;;;;;;;14.43;13.03;;;23.30;67.10;;;;;;5086982;28;20502;-49
2022/08/18 04:29:16;;;;;;;14.07;12.67;;;23.30;67.20;;;;;;5082434;28;21546;-49
2022/08/18 04:31:43;;;;;;;13.30;12.00;;;23.30;67.40;;;;;;5081202;28;20460;-49
2022/08/18 04:34:11;;;;;;;15.33;13.87;;;23.20;67.60;;;;;;5063027;28;20449;-49
2022/08/18 04:36:38;;;;;;;14.17;12.63;;;23.20;67.70;;;;;;5084013;28;20455;-49
2022/08/18 04:39:08;;;;;;;15.00;13.13;;;23.20;67.80;;;;;;5080538;28;20579;-49
2022/08/18 04:41:36;;;;;;;13.53;11.87;;;23.20;68.00;;;;;;5086598;28;20831;-49
2022/08/18 04:44:06;;;;;;;14.17;12.77;;;23.20;68.20;;;;;;5064356;28;20450;-49
2022/08/18 04:46:39;;;;;;;14.20;12.27;;;23.20;68.20;;;;;;5067675;28;20492;-49
2022/08/18 04:49:08;;;;;;;13.63;12.30;;;23.20;68.30;;;;;;5064702;28;20496;-49
2022/08/18 04:51:35;;;;;;;12.70;11.47;;;23.20;68.20;;;;;;5083663;28;20843;-49
2022/08/18 04:54:23;;;;;;;13.40;12.00;;;23.20;68.20;;;;;;5084690;28;20444;-49
2022/08/18 04:56:50;;;;;;;13.30;11.93;;;23.20;68.00;;;;;;5065559;28;20480;-49
2022/08/18 04:59:17;;;;;;;13.37;12.00;;;23.20;68.00;;;;;;5067352;28;20463;-49
2022/08/18 05:01:46;;;;;;;13.13;11.83;;;23.20;68.10;;;;;;5065204;28;20840;-49
2022/08/18 05:04:15;;;;;;;13.43;12.10;;;23.20;68.00;;;;;;5082595;28;20452;-49
2022/08/18 05:06:43;;;;;;;13.17;11.77;;;23.20;67.80;;;;;;5066067;28;20521;-49
2022/08/18 05:09:12;;;;;;;12.20;11.10;;;23.20;67.90;;;;;;5081716;28;20486;-49
2022/08/18 05:11:43;;;;;;;12.70;11.50;;;23.20;68.00;;;;;;5069221;28;20439;-49
2022/08/18 05:14:11;;;;;;;11.77;10.67;;;23.20;67.90;;;;;;5079276;28;20463;-49
2022/08/18 05:16:38;;;;;;;14.17;12.77;;;23.20;68.00;;;;;;5057700;28;20462;-49
2022/08/18 05:19:20;;;;;;;13.80;12.13;;;23.20;67.80;;;;;;5087136;28;20676;-50
2022/08/18 05:21:49;;;;;;;13.73;12.10;;;23.10;68.00;;;;;;5080529;28;20486;-49
2022/08/18 05:24:19;;;;;;;13.93;12.50;;;23.20;68.00;;;;;;5081205;28;20464;-50
2022/08/18 05:26:47;;;;;;;14.60;13.03;;;23.20;67.90;;;;;;5082894;28;20495;-49
2022/08/18 05:29:15;;;;;;;13.33;12.00;;;23.20;68.10;;;;;;5065900;28;20487;-50
2022/08/18 05:31:51;;;;;;;15.13;12.20;;;23.20;67.90;;;;;;5084145;28;20892;-50
2022/08/18 05:34:20;;;;;;;13.43;12.03;;;23.30;67.80;;;;;;5082095;28;20465;-49
2022/08/18 05:36:50;;;;;;;13.10;11.90;;;23.30;67.80;;;;;;5083160;28;20464;-50
2022/08/18 05:39:17;;;;;;;13.10;11.70;;;23.30;67.90;;;;;;5077367;28;20467;-49
2022/08/18 05:41:59;;;;;;;12.63;10.70;;;23.30;68.00;;;;;;5086278;28;20455;-49
2022/08/18 05:44:29;;;;;;;14.10;11.10;;;23.30;68.10;;;;;;5076532;28;20476;-49
2022/08/18 05:47:03;;;;;;;11.93;10.80;;;23.30;67.90;;;;;;5061430;28;20952;-49
2022/08/18 05:49:31;;;;;;;14.87;11.77;;;23.30;67.70;;;;;;5065623;28;20481;-49
2022/08/18 05:52:07;;;;;;;12.50;11.23;;;23.30;67.60;;;;;;5084872;28;20888;-49
2022/08/18 05:57:31;;;;;;;11.23;10.13;;;23.30;67.20;;;;;;5084812;28;20488;-49
2022/08/18 05:59:58;;;;;;;12.13;10.37;;;23.30;67.40;;;;;;5084231;28;20835;-50
2022/08/18 06:02:37;;;;;;;12.87;11.50;;;23.30;67.70;;;;;;5082278;28;20461;-50
2022/08/18 06:05:33;;;;;;;14.00;12.80;;;23.30;67.90;;;;;;5079018;28;20698;-49
2022/08/18 06:08:12;;;;;;;12.90;10.90;;;23.30;68.00;;;;;;5084622;28;20483;-48
2022/08/18 06:10:48;;;;;;;14.10;11.87;;;23.30;68.20;;;;;;5081908;28;20516;-49
2022/08/18 06:13:19;;;;;;;12.93;11.73;;;23.20;68.50;;;;;;5084242;28;20439;-47
2022/08/18 06:16:10;;;;;;;15.77;13.10;;;23.30;68.60;;;;;;5081142;28;20448;-47
2022/08/18 06:18:46;;;;;;;13.03;11.70;;;23.30;68.60;;;;;;5067178;28;20809;-46
2022/08/18 06:21:55;;;;;;;13.43;11.83;;;23.30;68.70;;;;;;5087547;28;20956;-47
2022/08/18 06:24:48;;;;;;;13.47;12.07;;;23.30;68.90;;;;;;5086332;28;20448;-47
2022/08/18 06:27:29;;;;;;;14.23;12.77;;;23.30;69.10;;;;;;5086071;28;20456;-46
2022/08/18 06:30:21;;;;;;;14.17;12.87;;;23.30;69.00;;;;;;5071391;28;20494;-46
2022/08/18 06:33:14;;;;;;;13.00;11.70;;;23.30;69.10;;;;;;5088682;28;20459;-46
2022/08/18 06:35:52;;;;;;;13.30;11.83;;;23.30;69.00;;;;;;5089741;28;21066;-46
2022/08/18 06:38:44;;;;;;;13.87;12.47;;;23.30;68.90;;;;;;5087799;28;20981;-47
2022/08/18 06:41:21;;;;;;;14.37;12.83;;;23.30;69.60;;;;;;5066274;28;20513;-47
2022/08/18 06:44:30;;;;;;;15.17;12.40;;;23.30;69.70;;;;;;5087299;28;20467;-47
2022/08/18 06:47:31;;;;;;;18.20;14.53;;;23.30;69.60;;;;;;5084818;28;20464;-47
2022/08/18 06:50:24;;;;;;;13.77;12.40;;;23.30;69.40;;;;;;5070661;28;20494;-47
2022/08/18 06:52:53;;;;;;;13.97;12.60;;;23.30;69.50;;;;;;5068633;28;21008;-46
2022/08/18 06:55:32;;;;;;;15.33;13.00;;;23.30;69.80;;;;;;5088096;28;20814;-46
2022/08/18 06:58:02;;;;;;;15.30;13.77;;;23.30;70.00;;;;;;5070551;28;20475;-47
2022/08/18 07:00:32;;;;;;;15.63;12.60;;;23.30;69.80;;;;;;5084409;28;20464;-47
2022/08/18 07:03:20;;;;;;;16.10;14.43;;;23.40;69.70;;;;;;5083124;28;20460;-46
2022/08/18 07:06:05;;;;;;;14.40;12.90;;;23.40;69.60;;;;;;5087492;28;20467;-46
2022/08/18 07:08:39;;;;;;;15.33;13.53;;;23.40;69.70;;;;;;5088388;28;20574;-46
2022/08/18 07:11:19;;;;;;;14.50;13.00;;;23.40;70.20;;;;;;5088482;28;20976;-46
2022/08/18 07:13:49;;;;;;;13.77;12.27;;;23.40;70.10;;;;;;5083629;28;20456;-46
2022/08/18 07:16:36;;;;;;;14.73;13.23;;;23.50;70.00;;;;;;5087429;28;20456;-47
2022/08/18 07:19:28;;;;;;;12.53;11.33;;;23.50;70.00;;;;;;5087686;28;20497;-47
2022/08/18 07:22:12;;;;;;;12.17;10.97;;;23.50;70.20;;;;;;5068728;28;20436;-47
2022/08/18 07:24:46;;;;;;;13.17;11.97;;;23.50;69.70;;;;;;5067112;28;20455;-47
2022/08/18 07:27:19;;;;;;;13.90;12.40;;;23.50;68.90;;;;;;5085580;28;20463;-47
2022/08/18 07:30:24;;;;;;;12.77;11.57;;;23.50;68.90;;;;;;5087385;28;20842;-47
2022/08/18 07:33:22;;;;;;;15.07;11.30;;;23.50;68.90;;;;;;5058709;28;20868;-47
2022/08/18 07:36:03;;;;;;;13.57;12.27;;;23.50;68.90;;;;;;5085167;28;20464;-47
2022/08/18 07:38:47;;;;;;;13.40;12.07;;;23.50;68.50;;;;;;5083974;28;20796;-47
2022/08/18 07:41:20;;;;;;;13.17;11.83;;;23.50;68.10;;;;;;5087326;28;20451;-47
2022/08/18 07:43:58;;;;;;;12.63;10.77;;;23.60;68.00;;;;;;5086231;28;20455;-47
2022/08/18 07:46:44;;;;;;;13.57;12.17;;;23.60;68.10;;;;;;5064322;28;20448;-48
2022/08/18 07:49:19;;;;;;;12.03;10.73;;;23.60;67.80;;;;;;5061785;28;20495;-47
2022/08/18 07:52:18;;;;;;;14.13;12.30;;;23.60;67.40;;;;;;5070122;28;20436;-48
2022/08/18 07:55:30;;;;;;;13.87;12.27;;;23.70;67.40;;;;;;5070712;28;20464;-47
2022/08/18 07:58:15;;;;;;;14.43;13.03;;;23.70;67.40;;;;;;5086419;28;20475;-48
2022/08/18 08:01:03;;;;;;;12.47;11.27;;;23.70;67.40;;;;;;5059138;28;20473;-47
2022/08/18 08:03:44;;;;;;;15.50;11.53;;;23.70;67.80;;;;;;5084627;28;21275;-48
2022/08/18 08:06:13;;;;;;;13.57;12.17;;;23.70;68.60;;;;;;5068452;28;20467;-48
2022/08/18 08:09:00;;;;;;;15.10;13.10;;;23.70;69.30;;;;;;5083742;28;20490;-47
2022/08/18 08:11:57;;;;;;;14.57;12.97;;;23.70;69.00;;;;;;5067521;28;20460;-47
2022/08/18 08:14:44;;;;;;;13.70;12.23;;;23.70;68.70;;;;;;5087862;28;20444;-48
2022/08/18 08:17:29;;;;;;;15.60;13.00;;;23.50;68.70;;;;;;5086626;28;20966;-48
2022/08/18 08:20:00;;;;;;;14.40;13.00;;;23.50;68.60;;;;;;5085544;28;20497;-48
2022/08/18 08:22:38;;;;;;;14.57;13.23;;;23.50;68.60;;;;;;5086760;28;20505;-47
2022/08/18 08:25:04;;;;;;;16.67;14.70;;;23.60;68.60;;;;;;5086378;28;20458;-48
2022/08/18 08:28:06;;;;;;;19.00;14.93;;;23.60;68.20;;;;;;5087674;28;20440;-48
2022/08/18 08:30:40;;;;;;;19.53;15.30;;;23.50;68.20;;;;;;5083710;28;20475;-47
2022/08/18 08:33:22;;;;;;;18.70;16.67;;;23.50;68.50;;;;;;5074850;28;20514;-47
2022/08/18 08:36:08;;;;;;;17.57;14.87;;;23.50;68.50;;;;;;5086471;28;20447;-48
2022/08/18 08:38:54;;;;;;;16.70;14.93;;;23.50;68.70;;;;;;5070521;28;20448;-48
2022/08/18 08:41:34;;;;;;;16.80;14.43;;;23.60;68.60;;;;;;5085497;28;20444;-48
2022/08/18 08:44:20;;;;;;;19.87;16.40;;;23.70;68.70;;;;;;5083502;28;20455;-47
2022/08/18 08:47:15;;;;;;;19.80;17.60;;;23.60;69.10;;;;;;5068255;28;20441;-48
2022/08/18 08:50:01;;;;;;;20.30;15.63;;;23.60;69.80;;;;;;5083100;28;20528;-48
2022/08/18 08:52:41;;;;;;;22.17;18.07;;;23.50;70.60;;;;;;5078028;28;20474;-48
2022/08/18 08:55:16;;;;;;;23.87;16.30;;;23.50;71.10;;;;;;5085207;28;20448;-47
2022/08/18 08:57:54;;;;;;;18.37;16.47;;;23.60;70.80;;;;;;5085820;28;20480;-48
2022/08/18 09:00:21;;;;;;;19.93;16.80;;;23.60;70.20;;;;;;5063582;28;20843;-48
2022/08/18 09:03:00;;;;;;;24.50;17.27;;;23.50;70.80;;;;;;5084202;28;20834;-48
2022/08/18 09:06:02;;;;;;;23.00;15.50;;;23.40;71.10;;;;;;5062073;28;20456;-48
2022/08/18 09:08:49;;;;;;;17.37;13.97;;;23.60;70.60;;;;;;5032135;28;20464;-48
2022/08/18 09:12:08;;;;;;;17.10;15.13;;;23.70;70.20;;;;;;5083512;28;20468;-47
2022/08/18 09:15:15;;;;;;;18.90;16.80;;;23.70;70.30;;;;;;4984915;28;20448;-48
2022/08/18 09:18:08;;;;;;;15.87;13.57;;;23.40;70.90;;;;;;5083209;28;20452;-48
2022/08/18 09:20:49;;;;;;;20.37;15.50;;;23.60;70.30;;;;;;5086384;28;20444;-48
2022/08/18 09:23:24;;;;;;;19.10;15.30;;;23.70;70.20;;;;;;5068440;28;20459;-48
2022/08/18 09:25:59;;;;;;;19.63;16.27;;;23.80;69.90;;;;;;5086108;28;20861;-48
2022/08/18 09:28:28;;;;;;;16.53;14.30;;;23.90;69.10;;;;;;5087098;28;20444;-48
2022/08/18 09:31:01;;;;;;;15.53;13.80;;;24.00;68.60;;;;;;5084712;28;20490;-48
2022/08/18 09:33:40;;;;;;;16.93;15.30;;;24.10;68.30;;;;;;5086219;28;20821;-48
2022/08/18 09:36:19;;;;;;;13.97;12.43;;;24.10;67.80;;;;;;5068065;28;20432;-48
2022/08/18 09:42:08;;;;;;;20.10;14.53;;;24.20;67.20;;;;;;5082319;28;20452;-48
2022/08/18 09:44:47;;;;;;;18.47;14.40;;;24.20;67.20;;;;;;5064938;28;20463;-48
2022/08/18 09:47:20;;;;;;;16.67;15.07;;;24.20;67.00;;;;;;5086505;28;20496;-48
2022/08/18 09:50:12;;;;;;;16.70;15.00;;;24.20;66.60;;;;;;5083418;28;20480;-48
2022/08/18 09:53:13;;;;;;;20.03;14.20;;;24.20;66.60;;;;;;5086285;28;20450;-48
2022/08/18 09:55:52;;;;;;;18.13;15.10;;;24.10;66.40;;;;;;5087019;28;20447;-48
2022/08/18 09:58:27;;;;;;;15.73;14.03;;;24.00;66.60;;;;;;5090024;28;20498;-48
2022/08/18 10:01:19;;;;;;;14.83;13.33;;;24.00;66.90;;;;;;5072221;28;20448;-48
2022/08/18 10:04:15;;;;;;;14.73;12.93;;;24.10;66.50;;;;;;5062280;28;20463;-48
2022/08/18 10:06:48;;;;;;;16.50;12.90;;;24.10;66.40;;;;;;5088716;28;20476;-48
2022/08/18 10:09:45;;;;;;;14.93;13.33;;;24.20;66.00;;;;;;5089734;28;20479;-48
2022/08/18 10:12:25;;;;;;;16.47;14.57;;;24.20;65.80;;;;;;5071591;28;20514;-48
2022/08/18 10:15:30;;;;;;;15.30;13.80;;;24.20;65.60;;;;;;5087571;28;20487;-48
2022/08/18 10:18:05;;;;;;;16.13;14.23;;;24.30;65.70;;;;;;5087676;28;20534;-48
2022/08/18 10:20:53;;;;;;;14.17;12.80;;;24.30;65.70;;;;;;5085619;28;20606;-48
2022/08/18 10:23:42;;;;;;;16.33;14.70;;;24.30;65.80;;;;;;5090007;28;20797;-48
2022/08/18 10:26:29;;;;;;;16.50;13.63;;;24.30;65.70;;;;;;5073627;28;20966;-48
2022/08/18 10:29:10;;;;;;;15.50;13.80;;;24.30;65.60;;;;;;5089999;28;20462;-48
2022/08/18 10:31:58;;;;;;;15.80;14.30;;;24.30;65.50;;;;;;5070462;28;20765;-48
2022/08/18 10:34:49;;;;;;;14.63;13.23;;;24.30;65.50;;;;;;5084985;28;21028;-48
2022/08/18 10:37:21;;;;;;;17.90;15.67;;;24.30;65.30;;;;;;5089990;28;20566;-48
2022/08/18 10:39:54;;;;;;;15.93;14.33;;;24.30;65.10;;;;;;5071568;28;21073;-48
2022/08/18 10:42:36;;;;;;;14.43;12.93;;;24.30;65.00;;;;;;5084869;28;20597;-48
2022/08/18 10:45:26;;;;;;;16.30;14.77;;;24.30;65.10;;;;;;5071616;28;20959;-48
2022/08/18 10:48:07;;;;;;;14.70;13.40;;;24.30;65.20;;;;;;5086852;28;20480;-48
2022/08/18 10:51:10;;;;;;;13.63;12.23;;;24.30;65.20;;;;;;5086302;28;20498;-48
2022/08/18 10:53:40;;;;;;;14.80;13.40;;;24.30;65.30;;;;;;5086892;28;20460;-47
2022/08/18 10:56:40;;;;;;;15.07;12.50;;;24.40;65.10;;;;;;5087499;28;20942;-47
2022/08/18 10:59:19;;;;;;;14.93;12.53;;;24.40;65.10;;;;;;5086166;28;20575;-47
2022/08/18 11:02:17;;;;;;;15.57;13.97;;;24.40;65.10;;;;;;5086783;28;20452;-46
2022/08/18 11:04:50;;;;;;;13.53;12.17;;;24.50;64.70;;;;;;5086968;28;20440;-47
2022/08/18 11:07:28;;;;;;;17.40;14.20;;;24.50;64.60;;;;;;5084445;28;20566;-47
2022/08/18 11:09:57;;;;;;;14.67;12.50;;;24.60;64.50;;;;;;5069599;28;20475;-47
2022/08/18 11:12:50;;;;;;;17.37;15.33;;;24.60;64.50;;;;;;5082566;28;20819;-47
2022/08/18 11:15:47;;;;;;;14.53;13.13;;;24.50;64.40;;;;;;5082852;28;20452;-47
2022/08/18 11:18:39;;;;;;;16.73;13.03;;;24.60;64.20;;;;;;5078131;28;20467;-47
2022/08/18 11:21:34;;;;;;;14.17;12.87;;;24.60;64.20;;;;;;5069091;28;20956;-47
2022/08/18 11:24:08;;;;;;;15.73;13.80;;;24.70;64.30;;;;;;5086319;28;20491;-47
2022/08/18 11:26:48;;;;;;;14.47;12.87;;;24.70;64.20;;;;;;5064336;28;20459;-47
2022/08/18 11:29:31;;;;;;;14.90;13.30;;;24.80;64.10;;;;;;5067144;28;20489;-47
2022/08/18 11:32:06;;;;;;;15.23;13.40;;;24.80;63.80;;;;;;5084960;28;20455;-47
2022/08/18 11:34:42;;;;;;;13.60;12.20;;;24.80;63.50;;;;;;5084211;28;21004;-47
2022/08/18 11:37:34;;;;;;;14.20;12.77;;;24.90;63.50;;;;;;5084363;28;20448;-47
2022/08/18 11:40:39;;;;;;;14.87;13.37;;;25.00;63.50;;;;;;5085861;28;20467;-47
2022/08/18 11:43:34;;;;;;;13.30;11.90;;;25.10;63.00;;;;;;5080447;28;20867;-47
2022/08/18 11:46:19;;;;;;;18.67;14.30;;;25.10;63.20;;;;;;5082266;28;20525;-47
2022/08/18 11:49:27;;;;;;;15.53;13.97;;;24.90;63.30;;;;;;5071452;28;20472;-47
2022/08/18 11:52:02;;;;;;;15.13;13.60;;;25.00;63.40;;;;;;5064300;28;20465;-47
2022/08/18 11:54:41;;;;;;;15.23;13.73;;;25.10;63.30;;;;;;5066858;28;20460;-47
2022/08/18 11:57:51;;;;;;;15.37;13.23;;;25.20;63.20;;;;;;5086162;28;20478;-47
2022/08/18 12:00:38;;;;;;;15.93;13.80;;;25.20;63.10;;;;;;5083157;28;20456;-47
2022/08/18 12:03:14;;;;;;;15.03;13.17;;;25.30;63.00;;;;;;5067471;28;20441;-47
2022/08/18 12:05:48;;;;;;;14.20;12.80;;;25.30;62.50;;;;;;5084563;28;20455;-47
2022/08/18 12:08:34;;;;;;;15.00;12.00;;;25.40;62.40;;;;;;5084399;28;20495;-47
2022/08/18 12:11:25;;;;;;;15.50;12.70;;;25.40;62.20;;;;;;5085213;28;20472;-47
2022/08/18 12:14:20;;;;;;;14.77;13.00;;;25.50;61.60;;;;;;5084695;28;20521;-47
2022/08/18 12:16:59;;;;;;;12.97;11.57;;;25.20;60.40;;;;;;5082671;28;20547;-47
2022/08/18 12:19:46;;;;;;;12.10;11.00;;;25.10;61.00;;;;;;5086308;28;20444;-47
2022/08/18 12:22:31;;;;;;;11.90;9.80;;;25.30;60.20;;;;;;5081373;28;20456;-47
2022/08/18 12:24:58;;;;;;;11.03;10.00;;;25.40;60.10;;;;;;5085601;28;20736;-47
2022/08/18 12:27:27;;;;;;;12.43;11.10;;;25.50;60.10;;;;;;5084377;28;20463;-47
2022/08/18 12:30:15;;;;;;;12.33;11.10;;;25.60;59.90;;;;;;5068093;28;20476;-46
2022/08/18 12:32:42;;;;;;;16.00;11.70;;;25.50;59.50;;;;;;5084383;28;20824;-47
2022/08/18 12:35:22;;;;;;;11.10;10.03;;;25.60;59.80;;;;;;5082821;28;20505;-47
2022/08/18 12:37:49;;;;;;;11.00;10.10;;;25.60;59.80;;;;;;5079050;28;20969;-47
2022/08/18 12:40:36;;;;;;;12.07;10.87;;;25.70;59.80;;;;;;5082015;28;20456;-47
2022/08/18 12:43:04;;;;;;;12.63;10.50;;;25.70;59.90;;;;;;5059609;28;20547;-46
2022/08/18 12:45:32;;;;;;;11.57;10.37;;;25.80;59.80;;;;;;5078513;28;20515;-46
2022/08/18 12:48:01;;;;;;;10.50;9.50;;;25.80;59.80;;;;;;5082610;28;20490;-47
2022/08/18 12:50:30;;;;;;;12.07;11.00;;;25.80;59.30;;;;;;5080967;28;20498;-47
2022/08/18 12:53:05;;;;;;;10.53;9.53;;;25.90;58.70;;;;;;5084449;28;20461;-47
2022/08/18 12:55:38;;;;;;;10.77;9.77;;;25.90;58.40;;;;;;5076034;28;20460;-47
2022/08/18 12:58:11;;;;;;;10.77;9.77;;;25.90;58.30;;;;;;5081105;28;20471;-47
2022/08/18 13:00:39;;;;;;;11.73;10.63;;;26.00;58.30;;;;;;5064947;28;20452;-47
2022/08/18 13:03:07;;;;;;;13.70;11.20;;;26.00;58.20;;;;;;5078560;28;20881;-47
2022/08/18 13:05:36;;;;;;;11.53;10.53;;;26.00;58.30;;;;;;5059890;28;20860;-47
2022/08/18 13:08:04;;;;;;;12.63;11.33;;;26.00;58.20;;;;;;5075424;28;20462;-47
2022/08/18 13:10:33;;;;;;;10.70;9.70;;;26.10;58.00;;;;;;5084465;28;20491;-47
2022/08/18 13:13:18;;;;;;;11.03;9.93;;;26.10;57.20;;;;;;5078692;28;20459;-48
2022/08/18 13:15:46;;;;;;;11.40;10.40;;;26.20;57.40;;;;;;5078478;28;20456;-47
2022/08/18 13:18:24;;;;;;;10.37;9.53;;;26.20;57.60;;;;;;5076320;28;20965;-47
2022/08/18 13:20:54;;;;;;;10.93;9.93;;;26.20;57.30;;;;;;5067910;28;20555;-47
2022/08/18 13:23:22;;;;;;;11.67;10.53;;;26.20;57.40;;;;;;5086257;28;20507;-47
2022/08/18 13:25:51;;;;;;;10.57;9.57;;;26.20;57.60;;;;;;5083835;28;20467;-47
2022/08/18 13:28:31;;;;;;;9.90;9.00;;;26.20;57.70;;;;;;5076043;28;20530;-47
2022/08/18 13:31:15;;;;;;;12.30;10.97;;;26.20;57.60;;;;;;5077331;28;20491;-47